sensor_id;sensor_type;location;lat;lon;timestamp;temperature;humidity
74540;SHT31;66042;51.090;-115.340;2023-11-19T00:01:46;4.07;49.44
74540;SHT31;66042;51.090;-115.340;2023-11-19T00:04:13;4.08;49.53
74540;SHT31;66042;51.090;-115.340;2023-11-19T00:06:40;4.10;49.52
74540;SHT31;66042;51.090;-115.340;2023-11-19T00:09:08;4.06;49.60
74540;SHT31;66042;51.090;-115.340;2023-11-19T00:11:35;3.99;49.78
74540;SHT31;66042;51.090;-115.340;2023-11-19T00:14:02;3.94;49.91
74540;SHT31;66042;51.090;-115.340;2023-11-19T00:16:29;3.84;50.07
74540;SHT31;66042;51.090;-115.340;2023-11-19T00:18:57;3.75;50.27
74540;SHT31;66042;51.090;-115.340;2023-11-19T00:21:24;3.64;50.64
74540;SHT31;66042;51.090;-115.340;2023-11-19T00:23:54;3.55;50.71
74540;SHT31;66042;51.090;-115.340;2023-11-19T00:26:23;3.55;50.72
74540;SHT31;66042;51.090;-115.340;2023-11-19T00:28:50;3.56;50.82
74540;SHT31;66042;51.090;-115.340;2023-11-19T00:31:18;3.55;50.91
74540;SHT31;66042;51.090;-115.340;2023-11-19T00:33:45;3.46;51.00
74540;SHT31;66042;51.090;-115.340;2023-11-19T00:36:12;3.40;51.16
74540;SHT31;66042;51.090;-115.340;2023-11-19T00:38:39;3.39;51.19
74540;SHT31;66042;51.090;-115.340;2023-11-19T00:41:06;3.37;51.21
74540;SHT31;66042;51.090;-115.340;2023-11-19T00:43:33;3.33;51.29
74540;SHT31;66042;51.090;-115.340;2023-11-19T00:46:00;3.24;51.35
74540;SHT31;66042;51.090;-115.340;2023-11-19T00:48:28;3.23;51.36
74540;SHT31;66042;51.090;-115.340;2023-11-19T00:50:57;3.17;51.48
74540;SHT31;66042;51.090;-115.340;2023-11-19T00:53:24;3.15;51.50
74540;SHT31;66042;51.090;-115.340;2023-11-19T00:55:51;3.14;51.57
74540;SHT31;66042;51.090;-115.340;2023-11-19T00:58:17;3.13;51.58
74540;SHT31;66042;51.090;-115.340;2023-11-19T01:00:44;3.08;51.77
74540;SHT31;66042;51.090;-115.340;2023-11-19T01:03:11;2.96;51.97
74540;SHT31;66042;51.090;-115.340;2023-11-19T01:05:38;2.89;52.01
74540;SHT31;66042;51.090;-115.340;2023-11-19T01:08:05;2.92;52.01
74540;SHT31;66042;51.090;-115.340;2023-11-19T01:10:33;2.94;52.00
74540;SHT31;66042;51.090;-115.340;2023-11-19T01:13:05;2.97;52.03
74540;SHT31;66042;51.090;-115.340;2023-11-19T01:15:32;2.99;52.01
74540;SHT31;66042;51.090;-115.340;2023-11-19T01:17:59;2.91;52.09
74540;SHT31;66042;51.090;-115.340;2023-11-19T01:20:30;2.86;52.27
74540;SHT31;66042;51.090;-115.340;2023-11-19T01:22:59;2.77;52.35
74540;SHT31;66042;51.090;-115.340;2023-11-19T01:25:26;2.78;52.39
74540;SHT31;66042;51.090;-115.340;2023-11-19T01:27:53;2.79;52.29
74540;SHT31;66042;51.090;-115.340;2023-11-19T01:30:24;2.80;52.30
74540;SHT31;66042;51.090;-115.340;2023-11-19T01:32:51;2.82;52.36
74540;SHT31;66042;51.090;-115.340;2023-11-19T01:35:18;2.81;52.36
74540;SHT31;66042;51.090;-115.340;2023-11-19T01:37:45;2.77;52.37
74540;SHT31;66042;51.090;-115.340;2023-11-19T01:40:12;2.74;52.46
74540;SHT31;66042;51.090;-115.340;2023-11-19T01:42:40;2.76;52.50
74540;SHT31;66042;51.090;-115.340;2023-11-19T01:45:07;2.76;52.52
74540;SHT31;66042;51.090;-115.340;2023-11-19T01:47:34;2.75;52.57
74540;SHT31;66042;51.090;-115.340;2023-11-19T01:50:03;2.74;52.56
74540;SHT31;66042;51.090;-115.340;2023-11-19T01:52:34;2.69;52.70
74540;SHT31;66042;51.090;-115.340;2023-11-19T01:55:03;2.66;52.65
74540;SHT31;66042;51.090;-115.340;2023-11-19T01:57:33;2.66;52.77
74540;SHT31;66042;51.090;-115.340;2023-11-19T02:00:03;2.66;52.87
74540;SHT31;66042;51.090;-115.340;2023-11-19T02:02:38;2.67;52.92
74540;SHT31;66042;51.090;-115.340;2023-11-19T02:05:06;2.69;53.00
74540;SHT31;66042;51.090;-115.340;2023-11-19T02:07:33;2.69;53.01
74540;SHT31;66042;51.090;-115.340;2023-11-19T02:10:01;2.68;53.13
74540;SHT31;66042;51.090;-115.340;2023-11-19T02:12:28;2.68;53.10
74540;SHT31;66042;51.090;-115.340;2023-11-19T02:14:57;2.65;53.13
74540;SHT31;66042;51.090;-115.340;2023-11-19T02:17:28;2.63;53.01
74540;SHT31;66042;51.090;-115.340;2023-11-19T02:20:06;2.62;52.98
74540;SHT31;66042;51.090;-115.340;2023-11-19T02:22:46;2.62;53.07
74540;SHT31;66042;51.090;-115.340;2023-11-19T02:25:33;2.60;53.08
74540;SHT31;66042;51.090;-115.340;2023-11-19T02:28:02;2.54;53.15
74540;SHT31;66042;51.090;-115.340;2023-11-19T02:30:30;2.54;53.16
74540;SHT31;66042;51.090;-115.340;2023-11-19T02:32:58;2.57;53.15
74540;SHT31;66042;51.090;-115.340;2023-11-19T02:35:31;2.57;53.18
74540;SHT31;66042;51.090;-115.340;2023-11-19T02:38:01;2.58;53.20
74540;SHT31;66042;51.090;-115.340;2023-11-19T02:40:32;2.60;53.23
74540;SHT31;66042;51.090;-115.340;2023-11-19T02:42:59;2.60;53.39
74540;SHT31;66042;51.090;-115.340;2023-11-19T02:45:30;2.59;53.46
74540;SHT31;66042;51.090;-115.340;2023-11-19T02:47:57;2.62;53.41
74540;SHT31;66042;51.090;-115.340;2023-11-19T02:50:26;2.63;53.40
74540;SHT31;66042;51.090;-115.340;2023-11-19T02:52:54;2.61;53.36
74540;SHT31;66042;51.090;-115.340;2023-11-19T02:55:22;2.58;53.42
74540;SHT31;66042;51.090;-115.340;2023-11-19T02:57:51;2.51;53.57
74540;SHT31;66042;51.090;-115.340;2023-11-19T03:00:19;2.49;53.60
74540;SHT31;66042;51.090;-115.340;2023-11-19T03:02:59;2.50;53.62
74540;SHT31;66042;51.090;-115.340;2023-11-19T03:05:43;2.45;53.73
74540;SHT31;66042;51.090;-115.340;2023-11-19T03:08:10;2.38;54.02
74540;SHT31;66042;51.090;-115.340;2023-11-19T03:10:37;2.30;54.31
74540;SHT31;66042;51.090;-115.340;2023-11-19T03:13:05;2.26;54.35
74540;SHT31;66042;51.090;-115.340;2023-11-19T03:15:41;2.21;54.55
74540;SHT31;66042;51.090;-115.340;2023-11-19T03:18:08;2.19;54.63
74540;SHT31;66042;51.090;-115.340;2023-11-19T03:23:07;2.07;54.95
74540;SHT31;66042;51.090;-115.340;2023-11-19T03:25:33;2.01;55.50
74540;SHT31;66042;51.090;-115.340;2023-11-19T03:28:02;1.95;55.61
74540;SHT31;66042;51.090;-115.340;2023-11-19T03:30:30;1.92;55.56
74540;SHT31;66042;51.090;-115.340;2023-11-19T03:32:58;1.89;55.61
74540;SHT31;66042;51.090;-115.340;2023-11-19T03:35:26;1.86;55.77
74540;SHT31;66042;51.090;-115.340;2023-11-19T03:37:53;1.82;55.99
74540;SHT31;66042;51.090;-115.340;2023-11-19T03:40:21;1.79;56.12
74540;SHT31;66042;51.090;-115.340;2023-11-19T03:42:50;1.73;56.41
74540;SHT31;66042;51.090;-115.340;2023-11-19T03:45:17;1.68;56.69
74540;SHT31;66042;51.090;-115.340;2023-11-19T03:47:44;1.65;56.59
74540;SHT31;66042;51.090;-115.340;2023-11-19T03:50:11;1.62;56.76
74540;SHT31;66042;51.090;-115.340;2023-11-19T03:52:38;1.60;56.75
74540;SHT31;66042;51.090;-115.340;2023-11-19T03:55:05;1.58;56.83
74540;SHT31;66042;51.090;-115.340;2023-11-19T03:57:34;1.57;57.02
74540;SHT31;66042;51.090;-115.340;2023-11-19T04:00:01;1.57;57.57
74540;SHT31;66042;51.090;-115.340;2023-11-19T04:02:39;1.56;57.20
74540;SHT31;66042;51.090;-115.340;2023-11-19T04:05:12;1.50;57.40
74540;SHT31;66042;51.090;-115.340;2023-11-19T04:07:39;1.44;57.46
74540;SHT31;66042;51.090;-115.340;2023-11-19T04:10:06;1.39;57.67
74540;SHT31;66042;51.090;-115.340;2023-11-19T04:12:33;1.38;57.51
74540;SHT31;66042;51.090;-115.340;2023-11-19T04:15:01;1.42;57.37
74540;SHT31;66042;51.090;-115.340;2023-11-19T04:17:30;1.46;57.40
74540;SHT31;66042;51.090;-115.340;2023-11-19T04:19:56;1.46;57.30
74540;SHT31;66042;51.090;-115.340;2023-11-19T04:22:24;1.47;57.37
74540;SHT31;66042;51.090;-115.340;2023-11-19T04:24:51;1.47;57.49
74540;SHT31;66042;51.090;-115.340;2023-11-19T04:27:18;1.46;57.41
74540;SHT31;66042;51.090;-115.340;2023-11-19T04:29:49;1.47;57.56
74540;SHT31;66042;51.090;-115.340;2023-11-19T04:32:16;1.43;57.73
74540;SHT31;66042;51.090;-115.340;2023-11-19T04:34:43;1.38;57.72
74540;SHT31;66042;51.090;-115.340;2023-11-19T04:37:10;1.38;57.66
74540;SHT31;66042;51.090;-115.340;2023-11-19T04:39:37;1.41;57.62
74540;SHT31;66042;51.090;-115.340;2023-11-19T04:42:05;1.46;57.53
74540;SHT31;66042;51.090;-115.340;2023-11-19T04:44:38;1.48;57.34
74540;SHT31;66042;51.090;-115.340;2023-11-19T04:47:04;1.52;57.23
74540;SHT31;66042;51.090;-115.340;2023-11-19T04:49:31;1.55;57.28
74540;SHT31;66042;51.090;-115.340;2023-11-19T04:51:58;1.56;57.39
74540;SHT31;66042;51.090;-115.340;2023-11-19T04:54:30;1.52;57.47
74540;SHT31;66042;51.090;-115.340;2023-11-19T04:56:57;1.54;57.30
74540;SHT31;66042;51.090;-115.340;2023-11-19T04:59:24;1.56;57.20
74540;SHT31;66042;51.090;-115.340;2023-11-19T05:01:53;1.56;57.20
74540;SHT31;66042;51.090;-115.340;2023-11-19T05:04:19;1.56;57.20
74540;SHT31;66042;51.090;-115.340;2023-11-19T05:06:46;1.61;57.19
74540;SHT31;66042;51.090;-115.340;2023-11-19T05:09:16;1.66;57.03
74540;SHT31;66042;51.090;-115.340;2023-11-19T05:11:43;1.69;56.96
74540;SHT31;66042;51.090;-115.340;2023-11-19T05:14:10;1.68;56.92
74540;SHT31;66042;51.090;-115.340;2023-11-19T05:16:41;1.69;56.90
74540;SHT31;66042;51.090;-115.340;2023-11-19T05:19:10;1.66;56.98
74540;SHT31;66042;51.090;-115.340;2023-11-19T05:21:38;1.62;57.19
74540;SHT31;66042;51.090;-115.340;2023-11-19T05:24:07;1.53;57.33
74540;SHT31;66042;51.090;-115.340;2023-11-19T05:26:34;1.46;57.49
74540;SHT31;66042;51.090;-115.340;2023-11-19T05:29:01;1.40;57.76
74540;SHT31;66042;51.090;-115.340;2023-11-19T05:31:28;1.34;57.91
74540;SHT31;66042;51.090;-115.340;2023-11-19T05:33:55;1.30;57.84
74540;SHT31;66042;51.090;-115.340;2023-11-19T05:36:22;1.30;57.93
74540;SHT31;66042;51.090;-115.340;2023-11-19T05:38:49;1.31;57.87
74540;SHT31;66042;51.090;-115.340;2023-11-19T05:41:16;1.34;57.81
74540;SHT31;66042;51.090;-115.340;2023-11-19T05:43:43;1.34;57.87
74540;SHT31;66042;51.090;-115.340;2023-11-19T05:46:11;1.34;57.78
74540;SHT31;66042;51.090;-115.340;2023-11-19T05:48:38;1.33;58.02
74540;SHT31;66042;51.090;-115.340;2023-11-19T05:51:05;1.28;58.31
74540;SHT31;66042;51.090;-115.340;2023-11-19T05:53:32;1.26;58.25
74540;SHT31;66042;51.090;-115.340;2023-11-19T05:55:59;1.26;58.30
74540;SHT31;66042;51.090;-115.340;2023-11-19T05:58:29;1.25;58.32
74540;SHT31;66042;51.090;-115.340;2023-11-19T06:00:58;1.25;58.32
74540;SHT31;66042;51.090;-115.340;2023-11-19T06:03:29;1.24;58.40
74540;SHT31;66042;51.090;-115.340;2023-11-19T06:05:55;1.26;58.23
74540;SHT31;66042;51.090;-115.340;2023-11-19T06:08:22;1.25;58.39
74540;SHT31;66042;51.090;-115.340;2023-11-19T06:10:52;1.24;58.45
74540;SHT31;66042;51.090;-115.340;2023-11-19T06:13:18;1.23;58.37
74540;SHT31;66042;51.090;-115.340;2023-11-19T06:15:47;1.25;58.36
74540;SHT31;66042;51.090;-115.340;2023-11-19T06:18:13;1.23;58.45
74540;SHT31;66042;51.090;-115.340;2023-11-19T06:20:41;1.22;58.55
74540;SHT31;66042;51.090;-115.340;2023-11-19T06:23:09;1.22;58.44
74540;SHT31;66042;51.090;-115.340;2023-11-19T06:25:36;1.24;58.29
74540;SHT31;66042;51.090;-115.340;2023-11-19T06:28:03;1.25;58.34
74540;SHT31;66042;51.090;-115.340;2023-11-19T06:30:30;1.26;58.36
74540;SHT31;66042;51.090;-115.340;2023-11-19T06:32:58;1.27;58.39
74540;SHT31;66042;51.090;-115.340;2023-11-19T06:35:25;1.26;58.40
74540;SHT31;66042;51.090;-115.340;2023-11-19T06:37:52;1.28;58.46
74540;SHT31;66042;51.090;-115.340;2023-11-19T06:40:20;1.26;58.58
74540;SHT31;66042;51.090;-115.340;2023-11-19T06:42:47;1.24;58.56
74540;SHT31;66042;51.090;-115.340;2023-11-19T06:45:14;1.26;58.50
74540;SHT31;66042;51.090;-115.340;2023-11-19T06:47:42;1.28;58.48
74540;SHT31;66042;51.090;-115.340;2023-11-19T06:50:08;1.26;58.53
74540;SHT31;66042;51.090;-115.340;2023-11-19T06:52:37;1.26;58.57
74540;SHT31;66042;51.090;-115.340;2023-11-19T06:55:05;1.27;58.58
74540;SHT31;66042;51.090;-115.340;2023-11-19T06:57:33;1.29;58.60
74540;SHT31;66042;51.090;-115.340;2023-11-19T07:00:00;1.33;58.40
74540;SHT31;66042;51.090;-115.340;2023-11-19T07:02:26;1.37;58.38
74540;SHT31;66042;51.090;-115.340;2023-11-19T07:04:54;1.41;58.28
74540;SHT31;66042;51.090;-115.340;2023-11-19T07:07:20;1.45;58.22
74540;SHT31;66042;51.090;-115.340;2023-11-19T07:09:47;1.44;58.31
74540;SHT31;66042;51.090;-115.340;2023-11-19T07:12:14;1.44;58.31
74540;SHT31;66042;51.090;-115.340;2023-11-19T07:14:41;1.47;58.20
74540;SHT31;66042;51.090;-115.340;2023-11-19T07:17:08;1.50;58.21
74540;SHT31;66042;51.090;-115.340;2023-11-19T07:19:35;1.52;58.12
74540;SHT31;66042;51.090;-115.340;2023-11-19T07:22:03;1.54;58.19
74540;SHT31;66042;51.090;-115.340;2023-11-19T07:24:32;1.54;58.08
74540;SHT31;66042;51.090;-115.340;2023-11-19T07:26:59;1.54;58.02
74540;SHT31;66042;51.090;-115.340;2023-11-19T07:29:28;1.57;58.00
74540;SHT31;66042;51.090;-115.340;2023-11-19T07:31:55;1.58;57.98
74540;SHT31;66042;51.090;-115.340;2023-11-19T07:34:22;1.60;57.96
74540;SHT31;66042;51.090;-115.340;2023-11-19T07:36:50;1.64;57.85
74540;SHT31;66042;51.090;-115.340;2023-11-19T07:39:17;1.68;57.80
74540;SHT31;66042;51.090;-115.340;2023-11-19T07:41:49;1.68;57.80
74540;SHT31;66042;51.090;-115.340;2023-11-19T07:44:16;1.62;57.90
74540;SHT31;66042;51.090;-115.340;2023-11-19T07:46:43;1.58;57.91
74540;SHT31;66042;51.090;-115.340;2023-11-19T07:49:10;1.60;58.00
74540;SHT31;66042;51.090;-115.340;2023-11-19T07:51:37;1.59;58.08
74540;SHT31;66042;51.090;-115.340;2023-11-19T07:54:04;1.58;58.12
74540;SHT31;66042;51.090;-115.340;2023-11-19T07:56:32;1.60;58.10
74540;SHT31;66042;51.090;-115.340;2023-11-19T07:59:03;1.59;58.01
74540;SHT31;66042;51.090;-115.340;2023-11-19T08:01:30;1.62;57.90
74540;SHT31;66042;51.090;-115.340;2023-11-19T08:03:57;1.63;57.90
74540;SHT31;66042;51.090;-115.340;2023-11-19T08:06:24;1.67;57.86
74540;SHT31;66042;51.090;-115.340;2023-11-19T08:08:51;1.70;57.73
74540;SHT31;66042;51.090;-115.340;2023-11-19T08:11:17;1.74;57.74
74540;SHT31;66042;51.090;-115.340;2023-11-19T08:13:48;1.78;57.64
74540;SHT31;66042;51.090;-115.340;2023-11-19T08:16:15;1.82;57.51
74540;SHT31;66042;51.090;-115.340;2023-11-19T08:18:45;1.85;57.49
74540;SHT31;66042;51.090;-115.340;2023-11-19T08:21:12;1.87;57.47
74540;SHT31;66042;51.090;-115.340;2023-11-19T08:23:40;1.83;57.38
74540;SHT31;66042;51.090;-115.340;2023-11-19T08:26:07;1.78;57.44
74540;SHT31;66042;51.090;-115.340;2023-11-19T08:28:35;1.77;57.48
74540;SHT31;66042;51.090;-115.340;2023-11-19T08:31:02;1.79;57.47
74540;SHT31;66042;51.090;-115.340;2023-11-19T08:33:30;1.78;57.42
74540;SHT31;66042;51.090;-115.340;2023-11-19T08:35:58;1.80;57.32
74540;SHT31;66042;51.090;-115.340;2023-11-19T08:38:26;1.80;57.21
74540;SHT31;66042;51.090;-115.340;2023-11-19T08:40:53;1.78;57.26
74540;SHT31;66042;51.090;-115.340;2023-11-19T08:43:25;1.79;57.24
74540;SHT31;66042;51.090;-115.340;2023-11-19T08:45:52;1.80;57.20
74540;SHT31;66042;51.090;-115.340;2023-11-19T08:48:19;1.82;57.20
74540;SHT31;66042;51.090;-115.340;2023-11-19T08:50:45;1.82;57.20
74540;SHT31;66042;51.090;-115.340;2023-11-19T08:53:12;1.81;57.20
74540;SHT31;66042;51.090;-115.340;2023-11-19T08:55:39;1.82;57.22
74540;SHT31;66042;51.090;-115.340;2023-11-19T08:58:06;1.81;57.28
74540;SHT31;66042;51.090;-115.340;2023-11-19T09:00:33;1.81;57.25
74540;SHT31;66042;51.090;-115.340;2023-11-19T09:03:00;1.83;57.18
74540;SHT31;66042;51.090;-115.340;2023-11-19T09:05:27;1.85;57.12
74540;SHT31;66042;51.090;-115.340;2023-11-19T09:07:54;1.83;57.11
74540;SHT31;66042;51.090;-115.340;2023-11-19T09:10:20;1.74;57.20
74540;SHT31;66042;51.090;-115.340;2023-11-19T09:12:47;1.62;57.37
74540;SHT31;66042;51.090;-115.340;2023-11-19T09:15:14;1.59;57.51
74540;SHT31;66042;51.090;-115.340;2023-11-19T09:17:42;1.62;57.50
74540;SHT31;66042;51.090;-115.340;2023-11-19T09:20:09;1.62;57.50
74540;SHT31;66042;51.090;-115.340;2023-11-19T09:22:40;1.62;57.53
74540;SHT31;66042;51.090;-115.340;2023-11-19T09:25:07;1.54;57.79
74540;SHT31;66042;51.090;-115.340;2023-11-19T09:27:35;1.44;58.08
74540;SHT31;66042;51.090;-115.340;2023-11-19T09:30:01;1.33;58.61
74540;SHT31;66042;51.090;-115.340;2023-11-19T09:32:29;1.25;58.87
74540;SHT31;66042;51.090;-115.340;2023-11-19T09:34:56;1.23;58.88
74540;SHT31;66042;51.090;-115.340;2023-11-19T09:37:23;1.29;58.81
74540;SHT31;66042;51.090;-115.340;2023-11-19T09:39:50;1.31;58.97
74540;SHT31;66042;51.090;-115.340;2023-11-19T09:42:18;1.31;58.91
74540;SHT31;66042;51.090;-115.340;2023-11-19T09:44:46;1.34;58.82
74540;SHT31;66042;51.090;-115.340;2023-11-19T09:47:14;1.40;58.71
74540;SHT31;66042;51.090;-115.340;2023-11-19T09:49:45;1.45;58.65
74540;SHT31;66042;51.090;-115.340;2023-11-19T09:52:13;1.49;58.60
74540;SHT31;66042;51.090;-115.340;2023-11-19T09:54:40;1.51;58.60
74540;SHT31;66042;51.090;-115.340;2023-11-19T09:57:07;1.54;58.59
74540;SHT31;66042;51.090;-115.340;2023-11-19T09:59:36;1.55;58.56
74540;SHT31;66042;51.090;-115.340;2023-11-19T10:02:04;1.56;58.51
74540;SHT31;66042;51.090;-115.340;2023-11-19T10:04:32;1.59;58.40
74540;SHT31;66042;51.090;-115.340;2023-11-19T10:07:02;1.62;58.40
74540;SHT31;66042;51.090;-115.340;2023-11-19T10:09:29;1.65;58.29
74540;SHT31;66042;51.090;-115.340;2023-11-19T10:11:56;1.67;58.29
74540;SHT31;66042;51.090;-115.340;2023-11-19T10:14:23;1.69;58.19
74540;SHT31;66042;51.090;-115.340;2023-11-19T10:16:50;1.71;58.09
74540;SHT31;66042;51.090;-115.340;2023-11-19T10:19:21;1.70;58.09
74540;SHT31;66042;51.090;-115.340;2023-11-19T10:21:48;1.70;58.01
74540;SHT31;66042;51.090;-115.340;2023-11-19T10:24:15;1.63;58.53
74540;SHT31;66042;51.090;-115.340;2023-11-19T10:26:43;1.51;58.71
74540;SHT31;66042;51.090;-115.340;2023-11-19T10:29:12;1.49;58.71
74540;SHT31;66042;51.090;-115.340;2023-11-19T10:31:40;1.48;58.94
74540;SHT31;66042;51.090;-115.340;2023-11-19T10:34:23;1.46;59.20
74540;SHT31;66042;51.090;-115.340;2023-11-19T10:36:52;1.42;59.19
74540;SHT31;66042;51.090;-115.340;2023-11-19T10:39:20;1.45;59.12
74540;SHT31;66042;51.090;-115.340;2023-11-19T10:41:49;1.46;59.11
74540;SHT31;66042;51.090;-115.340;2023-11-19T10:44:34;1.49;59.02
74540;SHT31;66042;51.090;-115.340;2023-11-19T10:47:01;1.52;58.95
74540;SHT31;66042;51.090;-115.340;2023-11-19T10:49:34;1.54;58.95
74540;SHT31;66042;51.090;-115.340;2023-11-19T10:52:01;1.51;58.99
74540;SHT31;66042;51.090;-115.340;2023-11-19T10:54:30;1.51;58.92
74540;SHT31;66042;51.090;-115.340;2023-11-19T10:56:59;1.52;58.92
74540;SHT31;66042;51.090;-115.340;2023-11-19T10:59:30;1.47;59.09
74540;SHT31;66042;51.090;-115.340;2023-11-19T11:01:57;1.47;59.08
74540;SHT31;66042;51.090;-115.340;2023-11-19T11:04:31;1.47;59.10
74540;SHT31;66042;51.090;-115.340;2023-11-19T11:07:05;1.47;59.14
74540;SHT31;66042;51.090;-115.340;2023-11-19T11:09:35;1.50;59.10
74540;SHT31;66042;51.090;-115.340;2023-11-19T11:12:02;1.52;59.01
74540;SHT31;66042;51.090;-115.340;2023-11-19T11:14:31;1.52;59.11
74540;SHT31;66042;51.090;-115.340;2023-11-19T11:17:02;1.47;59.25
74540;SHT31;66042;51.090;-115.340;2023-11-19T11:19:33;1.43;59.31
74540;SHT31;66042;51.090;-115.340;2023-11-19T11:22:01;1.44;59.26
74540;SHT31;66042;51.090;-115.340;2023-11-19T11:24:37;1.46;59.20
74540;SHT31;66042;51.090;-115.340;2023-11-19T11:34:33;1.37;59.44
74540;SHT31;66042;51.090;-115.340;2023-11-19T11:36:48;1.37;59.42
74540;SHT31;66042;51.090;-115.340;2023-11-19T11:39:27;1.40;59.37
74540;SHT31;66042;51.090;-115.340;2023-11-19T11:50:20;1.50;59.32
74540;SHT31;66042;51.090;-115.340;2023-11-19T11:55:25;1.42;59.82
74540;SHT31;66042;51.090;-115.340;2023-11-19T11:57:56;1.31;60.16
74540;SHT31;66042;51.090;-115.340;2023-11-19T12:00:38;1.25;60.17
74540;SHT31;66042;51.090;-115.340;2023-11-19T12:03:10;1.23;60.42
74540;SHT31;66042;51.090;-115.340;2023-11-19T12:05:40;1.23;60.47
74540;SHT31;66042;51.090;-115.340;2023-11-19T12:08:11;1.21;60.50
74540;SHT31;66042;51.090;-115.340;2023-11-19T12:10:48;1.22;60.54
74540;SHT31;66042;51.090;-115.340;2023-11-19T12:13:17;1.24;60.45
74540;SHT31;66042;51.090;-115.340;2023-11-19T12:18:28;1.33;60.23
74540;SHT31;66042;51.090;-115.340;2023-11-19T12:20:58;1.36;60.19
74540;SHT31;66042;51.090;-115.340;2023-11-19T12:23:29;1.40;60.10
74540;SHT31;66042;51.090;-115.340;2023-11-19T12:25:57;1.43;60.10
74540;SHT31;66042;51.090;-115.340;2023-11-19T12:28:24;1.43;60.10
74540;SHT31;66042;51.090;-115.340;2023-11-19T12:30:54;1.43;60.16
74540;SHT31;66042;51.090;-115.340;2023-11-19T12:33:36;1.43;60.19
74540;SHT31;66042;51.090;-115.340;2023-11-19T12:36:03;1.46;60.12
74540;SHT31;66042;51.090;-115.340;2023-11-19T12:38:31;1.46;60.38
74540;SHT31;66042;51.090;-115.340;2023-11-19T12:41:04;1.44;60.37
74540;SHT31;66042;51.090;-115.340;2023-11-19T12:43:36;1.47;60.35
74540;SHT31;66042;51.090;-115.340;2023-11-19T12:46:26;1.49;60.30
74540;SHT31;66042;51.090;-115.340;2023-11-19T12:48:52;1.48;60.45
74540;SHT31;66042;51.090;-115.340;2023-11-19T12:51:19;1.47;60.49
74540;SHT31;66042;51.090;-115.340;2023-11-19T12:53:50;1.51;60.33
74540;SHT31;66042;51.090;-115.340;2023-11-19T12:56:20;1.53;60.34
74540;SHT31;66042;51.090;-115.340;2023-11-19T12:58:48;1.55;60.33
74540;SHT31;66042;51.090;-115.340;2023-11-19T13:01:16;1.58;60.30
74540;SHT31;66042;51.090;-115.340;2023-11-19T13:03:44;1.59;60.29
74540;SHT31;66042;51.090;-115.340;2023-11-19T13:06:13;1.59;60.31
74540;SHT31;66042;51.090;-115.340;2023-11-19T13:11:15;1.62;60.26
74540;SHT31;66042;51.090;-115.340;2023-11-19T13:14:01;1.65;60.12
74540;SHT31;66042;51.090;-115.340;2023-11-19T13:16:35;1.66;60.08
74540;SHT31;66042;51.090;-115.340;2023-11-19T13:19:07;1.66;60.04
74540;SHT31;66042;51.090;-115.340;2023-11-19T13:21:35;1.68;59.92
74540;SHT31;66042;51.090;-115.340;2023-11-19T13:24:03;1.69;59.92
74540;SHT31;66042;51.090;-115.340;2023-11-19T13:26:31;1.71;59.97
74540;SHT31;66042;51.090;-115.340;2023-11-19T13:28:58;1.73;60.11
74540;SHT31;66042;51.090;-115.340;2023-11-19T13:31:25;1.75;60.11
74540;SHT31;66042;51.090;-115.340;2023-11-19T13:33:52;1.77;60.03
74540;SHT31;66042;51.090;-115.340;2023-11-19T13:36:18;1.80;59.90
74540;SHT31;66042;51.090;-115.340;2023-11-19T13:38:46;1.82;59.84
74540;SHT31;66042;51.090;-115.340;2023-11-19T13:41:12;1.83;59.76
74540;SHT31;66042;51.090;-115.340;2023-11-19T13:43:39;1.84;59.72
74540;SHT31;66042;51.090;-115.340;2023-11-19T13:46:06;1.81;59.74
74540;SHT31;66042;51.090;-115.340;2023-11-19T13:48:35;1.81;59.69
74540;SHT31;66042;51.090;-115.340;2023-11-19T13:51:02;1.80;59.72
74540;SHT31;66042;51.090;-115.340;2023-11-19T13:53:29;1.81;59.70
74540;SHT31;66042;51.090;-115.340;2023-11-19T13:55:56;1.82;59.74
74540;SHT31;66042;51.090;-115.340;2023-11-19T13:58:23;1.81;59.81
74540;SHT31;66042;51.090;-115.340;2023-11-19T14:00:50;1.80;59.75
74540;SHT31;66042;51.090;-115.340;2023-11-19T14:03:16;1.80;59.76
74540;SHT31;66042;51.090;-115.340;2023-11-19T14:05:43;1.80;59.79
74540;SHT31;66042;51.090;-115.340;2023-11-19T14:08:11;1.77;59.86
74540;SHT31;66042;51.090;-115.340;2023-11-19T14:10:38;1.72;60.24
74540;SHT31;66042;51.090;-115.340;2023-11-19T14:13:08;1.66;60.48
74540;SHT31;66042;51.090;-115.340;2023-11-19T14:15:37;1.65;60.57
74540;SHT31;66042;51.090;-115.340;2023-11-19T14:18:04;1.65;60.64
74540;SHT31;66042;51.090;-115.340;2023-11-19T14:20:30;1.65;60.66
74540;SHT31;66042;51.090;-115.340;2023-11-19T14:22:58;1.67;60.59
74540;SHT31;66042;51.090;-115.340;2023-11-19T14:25:25;1.67;60.66
74540;SHT31;66042;51.090;-115.340;2023-11-19T14:27:52;1.65;60.71
74540;SHT31;66042;51.090;-115.340;2023-11-19T14:30:19;1.67;60.71
74540;SHT31;66042;51.090;-115.340;2023-11-19T14:32:46;1.69;60.59
74540;SHT31;66042;51.090;-115.340;2023-11-19T14:35:14;1.71;60.53
74540;SHT31;66042;51.090;-115.340;2023-11-19T14:37:41;1.75;60.50
74540;SHT31;66042;51.090;-115.340;2023-11-19T14:40:08;1.76;60.49
74540;SHT31;66042;51.090;-115.340;2023-11-19T14:42:36;1.77;60.51
74540;SHT31;66042;51.090;-115.340;2023-11-19T14:45:07;1.73;60.60
74540;SHT31;66042;51.090;-115.340;2023-11-19T14:47:37;1.73;60.57
74540;SHT31;66042;51.090;-115.340;2023-11-19T14:50:04;1.74;60.55
74540;SHT31;66042;51.090;-115.340;2023-11-19T14:52:32;1.75;60.62
74540;SHT31;66042;51.090;-115.340;2023-11-19T14:55:02;1.74;60.69
74540;SHT31;66042;51.090;-115.340;2023-11-19T14:57:30;1.72;60.73
74540;SHT31;66042;51.090;-115.340;2023-11-19T14:59:57;1.73;60.75
74540;SHT31;66042;51.090;-115.340;2023-11-19T15:02:24;1.77;60.70
74540;SHT31;66042;51.090;-115.340;2023-11-19T15:04:51;1.81;60.69
74540;SHT31;66042;51.090;-115.340;2023-11-19T15:07:18;1.87;60.59
74540;SHT31;66042;51.090;-115.340;2023-11-19T15:09:44;1.97;60.50
74540;SHT31;66042;51.090;-115.340;2023-11-19T15:12:11;2.06;60.39
74540;SHT31;66042;51.090;-115.340;2023-11-19T15:14:39;2.14;60.25
74540;SHT31;66042;51.090;-115.340;2023-11-19T15:17:06;2.21;60.13
74540;SHT31;66042;51.090;-115.340;2023-11-19T15:19:34;2.27;60.05
74540;SHT31;66042;51.090;-115.340;2023-11-19T15:22:00;2.34;59.86
74540;SHT31;66042;51.090;-115.340;2023-11-19T15:24:30;2.40;59.71
74540;SHT31;66042;51.090;-115.340;2023-11-19T15:26:57;2.44;59.69
74540;SHT31;66042;51.090;-115.340;2023-11-19T15:29:24;2.44;59.68
74540;SHT31;66042;51.090;-115.340;2023-11-19T15:32:04;2.44;59.62
74540;SHT31;66042;51.090;-115.340;2023-11-19T15:34:35;2.49;59.54
74540;SHT31;66042;51.090;-115.340;2023-11-19T15:37:03;2.52;59.53